createdAt,value
2023-09-08T00:02:17.754Z,12.32
2023-09-08T00:05:03.191Z,12.80
2023-09-08T00:07:48.862Z,12.82
2023-09-08T00:10:34.344Z,11.45
2023-09-08T00:13:19.426Z,13.77
2023-09-08T00:16:05.069Z,12.00
2023-09-08T00:18:50.945Z,14.10
2023-09-08T00:21:37.785Z,13.57
2023-09-08T00:24:23.626Z,13.20
2023-09-08T00:27:10.603Z,12.48
2023-09-08T00:29:56.109Z,13.43
2023-09-08T00:32:41.903Z,11.88
2023-09-08T00:35:27.520Z,13.57
2023-09-08T00:38:12.932Z,9.75
2023-09-08T00:41:00.089Z,14.48
2023-09-08T00:43:45.338Z,11.80
2023-09-08T00:46:31.795Z,12.10
2023-09-08T00:49:17.819Z,14.35
2023-09-08T00:52:04.722Z,17.33
2023-09-08T00:54:50.094Z,13.95
2023-09-08T00:57:35.327Z,11.32
2023-09-08T01:00:20.770Z,13.02
2023-09-08T01:03:06.222Z,19.25
2023-09-08T01:05:52.543Z,14.93
2023-09-08T01:08:38.423Z,14.35
2023-09-08T01:11:24.141Z,14.10
2023-09-08T01:14:09.648Z,12.30
2023-09-08T01:16:55.185Z,13.65
2023-09-08T01:19:43.866Z,12.38
2023-09-08T01:22:41.677Z,14.75
2023-09-08T01:25:28.880Z,14.85
2023-09-08T01:28:14.313Z,11.75
2023-09-08T01:31:00.015Z,10.75
2023-09-08T01:33:46.670Z,14.95
2023-09-08T01:36:32.032Z,13.68
2023-09-08T01:39:17.347Z,13.15
2023-09-08T01:42:02.529Z,13.07
2023-09-08T01:44:48.073Z,16.40
2023-09-08T01:47:34.107Z,14.02
2023-09-08T01:50:23.267Z,19.77
2023-09-08T01:55:54.264Z,12.63
2023-09-08T01:58:39.816Z,12.95
2023-09-08T02:01:25.350Z,15.88
2023-09-08T02:04:10.651Z,14.30
2023-09-08T02:06:56.208Z,13.95
2023-09-08T02:09:41.545Z,14.60
2023-09-08T02:12:27.075Z,12.25
2023-09-08T02:15:14.550Z,16.80
2023-09-08T02:17:59.769Z,13.25
2023-09-08T02:20:45.001Z,13.25
2023-09-08T02:23:30.225Z,19.75
2023-09-08T02:26:15.720Z,14.73
2023-09-08T02:29:02.151Z,17.50
2023-09-08T02:31:48.007Z,18.45
2023-09-08T02:34:38.184Z,14.73
2023-09-08T02:37:25.128Z,14.05
2023-09-08T02:40:10.983Z,14.80
2023-09-08T02:42:58.276Z,16.17
2023-09-08T02:45:43.713Z,17.55
2023-09-08T02:48:29.138Z,17.30
2023-09-08T02:51:15.038Z,15.88
2023-09-08T02:54:00.313Z,14.80
2023-09-08T02:56:45.668Z,14.32
2023-09-08T02:59:31.049Z,18.00
2023-09-08T03:02:16.503Z,13.88
2023-09-08T03:05:02.725Z,13.50
2023-09-08T03:07:50.908Z,13.95
2023-09-08T03:10:37.049Z,14.57
2023-09-08T03:13:22.574Z,18.23
2023-09-08T03:16:09.735Z,15.82
2023-09-08T03:18:54.972Z,21.52
2023-09-08T03:21:40.318Z,13.68
2023-09-08T03:24:25.790Z,13.38
2023-09-08T03:27:11.475Z,18.35
2023-09-08T03:29:56.611Z,16.80
2023-09-08T03:32:42.111Z,14.25
2023-09-08T03:35:27.600Z,17.15
2023-09-08T03:38:13.211Z,16.05
2023-09-08T03:40:58.755Z,16.02
2023-09-08T03:43:44.733Z,18.77
2023-09-08T03:46:31.687Z,17.60
2023-09-08T03:49:17.289Z,15.32
2023-09-08T03:52:02.913Z,14.57
2023-09-08T03:54:49.828Z,16.05
2023-09-08T03:57:35.507Z,21.00
2023-09-08T04:00:22.596Z,15.45
2023-09-08T04:03:09.542Z,14.50
2023-09-08T04:05:54.743Z,15.25
2023-09-08T04:08:40.173Z,18.52
2023-09-08T04:11:26.865Z,15.32
2023-09-08T04:14:12.074Z,17.45
2023-09-08T04:16:57.735Z,20.67
2023-09-08T04:19:42.932Z,18.80
2023-09-08T04:22:28.290Z,17.52
2023-09-08T04:25:13.708Z,15.18
2023-09-08T04:27:59.197Z,19.15
2023-09-08T04:30:44.729Z,20.13
2023-09-08T04:33:30.766Z,15.77
2023-09-08T04:36:16.442Z,18.63
2023-09-08T04:39:02.067Z,20.42
2023-09-08T04:41:47.281Z,22.13
2023-09-08T04:44:32.911Z,18.13
2023-09-08T04:47:18.847Z,17.85
2023-09-08T04:50:06.117Z,15.27
2023-09-08T04:52:51.676Z,17.52
2023-09-08T04:55:36.810Z,16.23
2023-09-08T04:58:23.906Z,16.75
2023-09-08T05:01:09.330Z,21.00
2023-09-08T05:03:55.269Z,19.27
2023-09-08T05:06:40.871Z,15.07
2023-09-08T05:09:26.327Z,15.43
2023-09-08T05:12:11.938Z,17.63
2023-09-08T05:15:01.319Z,22.55
2023-09-08T05:17:48.198Z,16.80
2023-09-08T05:20:35.167Z,19.25
2023-09-08T05:23:20.537Z,17.25
2023-09-08T05:26:05.821Z,22.20
2023-09-08T05:28:51.948Z,16.17
2023-09-08T05:31:37.557Z,17.48
2023-09-08T05:34:22.820Z,20.70
2023-09-08T05:37:08.366Z,17.30
2023-09-08T05:39:53.959Z,21.75
2023-09-08T05:42:39.143Z,14.35
2023-09-08T05:45:26.724Z,16.65
2023-09-08T05:48:12.730Z,19.33
2023-09-08T05:50:58.340Z,19.60
2023-09-08T05:53:44.299Z,20.33
2023-09-08T05:56:34.377Z,19.98
2023-09-08T05:59:20.208Z,20.60
2023-09-08T06:02:05.880Z,16.92
2023-09-08T06:04:51.610Z,16.02
2023-09-08T06:07:38.948Z,19.02
2023-09-08T06:10:26.056Z,16.17
2023-09-08T06:13:11.861Z,19.38
2023-09-08T06:15:59.258Z,17.45
2023-09-08T06:18:45.608Z,18.23
2023-09-08T06:21:35.217Z,16.98
2023-09-08T06:24:20.962Z,21.00
2023-09-08T06:27:07.620Z,21.13
2023-09-08T06:29:54.394Z,16.50
2023-09-08T06:32:40.616Z,14.88
2023-09-08T06:35:27.290Z,23.27
2023-09-08T06:38:13.093Z,15.23
2023-09-08T06:40:58.966Z,16.75
2023-09-08T06:43:45.502Z,23.98
2023-09-08T06:46:39.411Z,19.17
2023-09-08T06:49:24.794Z,13.48
2023-09-08T06:52:10.374Z,22.08
2023-09-08T06:54:55.990Z,17.63
2023-09-08T06:57:41.483Z,17.20
2023-09-08T07:00:27.546Z,17.25
2023-09-08T07:03:13.721Z,15.80
2023-09-08T07:05:59.082Z,15.05
2023-09-08T07:08:44.964Z,20.23
2023-09-08T07:11:31.624Z,16.20
2023-09-08T07:14:17.140Z,20.20
2023-09-08T07:17:02.516Z,25.00
2023-09-08T07:19:48.089Z,15.45
2023-09-08T07:22:33.816Z,16.48
2023-09-08T07:25:19.072Z,18.40
2023-09-08T07:28:05.803Z,17.90
2023-09-08T07:30:51.959Z,14.50
2023-09-08T07:33:38.014Z,15.40
2023-09-08T07:36:23.332Z,12.77
2023-09-08T07:39:08.847Z,12.63
2023-09-08T07:41:55.224Z,12.88
2023-09-08T07:44:40.827Z,12.02
2023-09-08T07:47:26.344Z,12.63
2023-09-08T07:50:26.114Z,12.98
2023-09-08T07:53:11.636Z,13.60
2023-09-08T07:55:56.906Z,11.93
2023-09-08T07:58:42.728Z,14.15
2023-09-08T08:01:28.322Z,13.93
2023-09-08T08:04:13.907Z,10.63
2023-09-08T08:06:59.360Z,12.00
2023-09-08T08:09:44.642Z,16.65
2023-09-08T08:12:30.257Z,13.98
2023-09-08T08:15:15.680Z,11.43
2023-09-08T08:18:01.096Z,15.43
2023-09-08T08:20:46.478Z,15.23
2023-09-08T08:23:33.572Z,14.18
2023-09-08T08:26:19.766Z,17.55
2023-09-08T08:29:05.082Z,12.73
2023-09-08T08:31:50.796Z,10.85
2023-09-08T08:34:35.904Z,15.18
2023-09-08T08:37:21.250Z,9.38
2023-09-08T08:40:07.860Z,13.07
2023-09-08T08:42:56.272Z,12.02
2023-09-08T08:45:44.371Z,12.83
2023-09-08T08:48:32.758Z,12.82
2023-09-08T08:51:20.344Z,13.70
2023-09-08T08:54:06.249Z,12.38
2023-09-08T08:56:52.279Z,20.40
2023-09-08T08:59:38.057Z,10.30
2023-09-08T09:02:26.750Z,10.88
2023-09-08T09:05:16.488Z,9.20
2023-09-08T09:08:04.435Z,11.40
2023-09-08T09:10:51.233Z,15.65
2023-09-08T09:13:36.569Z,12.43
2023-09-08T09:16:21.933Z,9.65
2023-09-08T09:19:07.259Z,15.43
2023-09-08T09:21:55.548Z,8.38
2023-09-08T09:24:44.480Z,11.57
2023-09-08T09:30:17.170Z,11.15
2023-09-08T09:33:04.303Z,8.25
2023-09-08T09:35:54.874Z,13.35
2023-09-08T09:38:40.116Z,14.05
2023-09-08T09:41:25.737Z,17.85
2023-09-08T09:44:12.058Z,13.30
2023-09-08T09:46:58.456Z,12.43
2023-09-08T09:49:48.926Z,10.80
2023-09-08T09:52:39.870Z,8.90
2023-09-08T09:55:26.420Z,9.68
2023-09-08T09:58:12.404Z,13.60
2023-09-08T10:00:57.831Z,15.70
2023-09-08T10:03:43.793Z,10.00
2023-09-08T10:06:30.521Z,12.05
2023-09-08T10:09:20.397Z,12.23
2023-09-08T10:12:07.208Z,9.90
2023-09-08T10:14:56.368Z,10.40
2023-09-08T10:17:43.832Z,9.88
2023-09-08T10:20:29.879Z,8.90
2023-09-08T10:23:52.007Z,10.02
2023-09-08T10:26:40.950Z,12.20
2023-09-08T10:29:28.193Z,9.57
2023-09-08T10:32:14.169Z,8.02
2023-09-08T10:35:01.922Z,8.73
2023-09-08T10:37:47.372Z,11.93
2023-09-08T10:40:34.638Z,7.45
2023-09-08T10:43:20.897Z,9.60
2023-09-08T10:46:22.147Z,6.65
2023-09-08T10:49:08.724Z,9.48
2023-09-08T10:52:08.461Z,9.27
2023-09-08T10:57:46.489Z,9.63
2023-09-08T11:00:45.589Z,8.77
2023-09-08T11:03:40.460Z,8.60
2023-09-08T11:06:31.302Z,6.78
2023-09-08T11:09:16.953Z,14.05
2023-09-08T11:12:04.005Z,8.93
2023-09-08T11:14:50.483Z,8.48
2023-09-08T11:17:40.436Z,14.93
2023-09-08T11:20:30.022Z,12.00
2023-09-08T11:23:15.870Z,8.90
2023-09-08T11:26:01.567Z,7.60
2023-09-08T11:28:50.305Z,10.18
2023-09-08T11:31:38.703Z,8.18
2023-09-08T11:34:24.082Z,11.07
2023-09-08T11:37:14.397Z,8.30
2023-09-08T11:39:59.785Z,6.70
2023-09-08T11:42:46.199Z,6.53
2023-09-08T11:45:35.595Z,7.35
2023-09-08T11:48:21.006Z,8.07
2023-09-08T11:51:08.998Z,10.20
2023-09-08T11:53:54.973Z,11.25
2023-09-08T11:56:41.038Z,7.40
2023-09-08T11:59:28.555Z,6.88
2023-09-08T12:02:14.722Z,9.27
2023-09-08T12:05:00.237Z,9.57
2023-09-08T12:07:45.724Z,9.27
2023-09-08T12:10:31.005Z,7.15
2023-09-08T12:13:22.375Z,9.65
2023-09-08T12:16:21.185Z,7.43
2023-09-08T12:19:07.683Z,6.22
2023-09-08T12:21:58.237Z,6.93
2023-09-08T12:24:57.948Z,5.88
2023-09-08T12:27:44.087Z,7.22
2023-09-08T12:30:34.197Z,11.07
2023-09-08T12:33:21.654Z,9.35
2023-09-08T12:36:18.105Z,6.82
2023-09-08T12:39:06.017Z,9.45
2023-09-08T12:41:52.391Z,10.15
2023-09-08T12:44:38.709Z,9.65
2023-09-08T12:47:24.062Z,7.65
2023-09-08T12:50:09.819Z,12.35
2023-09-08T12:52:55.030Z,5.72
2023-09-08T12:55:40.250Z,6.53
2023-09-08T12:58:25.714Z,6.47
2023-09-08T13:01:11.464Z,6.68
2023-09-08T13:03:57.148Z,9.63
2023-09-08T13:06:42.728Z,12.55
2023-09-08T13:09:28.355Z,9.93
2023-09-08T13:12:14.815Z,11.52
2023-09-08T13:15:01.484Z,8.55
2023-09-08T13:17:47.459Z,6.88
2023-09-08T13:20:32.737Z,8.98
2023-09-08T13:23:18.248Z,7.20
2023-09-08T13:26:03.828Z,7.75
2023-09-08T13:28:49.296Z,8.05
2023-09-08T13:31:34.806Z,8.60
2023-09-08T13:34:20.169Z,11.82
2023-09-08T13:37:05.822Z,7.30
2023-09-08T13:39:51.482Z,6.32
2023-09-08T13:42:37.192Z,6.70
2023-09-08T13:45:22.615Z,8.98
2023-09-08T13:48:08.161Z,10.35
2023-09-08T13:50:55.049Z,11.35
2023-09-08T13:53:46.573Z,8.68
2023-09-08T13:56:33.825Z,9.10
2023-09-08T13:59:20.097Z,9.85
2023-09-08T14:05:00.228Z,8.85
2023-09-08T14:10:41.985Z,6.23
2023-09-08T14:13:36.689Z,8.55
2023-09-08T14:16:22.300Z,9.02
2023-09-08T14:19:07.655Z,8.82
2023-09-08T14:21:53.037Z,6.78
2023-09-08T14:24:38.209Z,6.75
2023-09-08T14:27:23.951Z,6.00
2023-09-08T14:30:09.536Z,6.80
2023-09-08T14:32:54.867Z,7.70
2023-09-08T14:35:44.875Z,7.47
2023-09-08T14:38:30.321Z,9.50
2023-09-08T14:41:15.623Z,8.20
2023-09-08T14:44:01.076Z,6.93
2023-09-08T14:46:46.576Z,8.55
2023-09-08T14:49:32.149Z,6.95
2023-09-08T14:52:21.528Z,8.27
2023-09-08T14:55:07.069Z,7.50
2023-09-08T14:57:52.301Z,9.85
2023-09-08T15:00:37.966Z,5.63
2023-09-08T15:03:23.216Z,8.52
2023-09-08T15:06:10.146Z,6.47
2023-09-08T15:08:55.808Z,7.65
2023-09-08T15:11:41.304Z,7.45
2023-09-08T15:14:26.721Z,7.10
2023-09-08T15:17:13.684Z,7.40
2023-09-08T15:20:00.810Z,8.40
2023-09-08T15:22:47.123Z,7.45
2023-09-08T15:25:32.455Z,9.63
2023-09-08T15:28:17.655Z,11.55
2023-09-08T15:31:04.155Z,9.77
2023-09-08T15:33:50.205Z,7.22
2023-09-08T15:36:35.853Z,9.63
2023-09-08T15:39:21.446Z,8.88
2023-09-08T15:42:06.696Z,9.85
2023-09-08T15:44:52.661Z,7.88
2023-09-08T15:47:38.171Z,6.65
2023-09-08T15:50:23.540Z,5.65
2023-09-08T15:53:08.866Z,6.75
2023-09-08T15:55:54.203Z,8.48
2023-09-08T15:58:39.620Z,6.15
2023-09-08T16:01:24.934Z,6.82
2023-09-08T16:04:11.297Z,7.63
2023-09-08T16:06:56.652Z,9.68
2023-09-08T16:09:41.972Z,8.80
2023-09-08T16:12:32.659Z,7.17
2023-09-08T16:15:17.864Z,7.47
2023-09-08T16:18:05.957Z,5.97
2023-09-08T16:20:51.582Z,10.85
2023-09-08T16:23:37.666Z,7.95
2023-09-08T16:26:23.178Z,7.95
2023-09-08T16:29:08.633Z,10.13
2023-09-08T16:31:54.274Z,10.30
2023-09-08T16:34:39.928Z,9.43
2023-09-08T16:37:25.209Z,8.38
2023-09-08T16:40:10.945Z,10.05
2023-09-08T16:42:57.161Z,11.70
2023-09-08T16:45:42.655Z,9.45
2023-09-08T16:48:28.583Z,10.43
2023-09-08T16:51:14.458Z,11.95
2023-09-08T16:54:00.815Z,10.00
2023-09-08T16:56:46.206Z,9.05
2023-09-08T16:59:31.490Z,8.70
2023-09-08T17:02:17.114Z,8.40
2023-09-08T17:05:02.766Z,9.95
2023-09-08T17:07:48.434Z,12.90
2023-09-08T17:10:36.044Z,12.43
2023-09-08T17:13:21.729Z,8.50
2023-09-08T17:16:06.937Z,11.60
2023-09-08T17:18:52.369Z,9.63
2023-09-08T17:21:37.541Z,10.15
2023-09-08T17:24:22.870Z,12.48
2023-09-08T17:27:08.180Z,12.85
2023-09-08T17:29:53.389Z,12.65
2023-09-08T17:32:39.176Z,14.15
2023-09-08T17:35:24.460Z,14.55
2023-09-08T17:38:09.755Z,15.07
2023-09-08T17:40:57.662Z,12.10
2023-09-08T17:43:43.858Z,13.10
2023-09-08T17:46:29.317Z,14.43
2023-09-08T17:49:14.814Z,14.50
2023-09-08T17:52:01.641Z,11.05
2023-09-08T17:54:48.385Z,15.43
2023-09-08T17:57:33.543Z,23.15
2023-09-08T18:00:19.701Z,13.07
2023-09-08T18:03:05.362Z,15.88
2023-09-08T18:05:51.069Z,15.23
2023-09-08T18:08:37.209Z,15.95
2023-09-08T18:11:22.627Z,15.85
2023-09-08T18:14:08.326Z,16.08
2023-09-08T18:16:53.613Z,15.55
2023-09-08T18:19:40.243Z,17.13
2023-09-08T18:22:28.757Z,23.00
2023-09-08T18:25:14.491Z,19.75
2023-09-08T18:27:59.778Z,20.13
2023-09-08T18:30:45.524Z,20.48
2023-09-08T18:33:30.972Z,20.27
2023-09-08T18:36:16.220Z,18.75
2023-09-08T18:39:01.345Z,20.95
2023-09-08T18:41:46.559Z,22.67
2023-09-08T18:44:32.180Z,26.08
2023-09-08T18:47:17.702Z,21.02
2023-09-08T18:50:02.976Z,24.13
2023-09-08T18:52:48.544Z,28.40
2023-09-08T18:55:34.462Z,20.48
2023-09-08T18:58:20.962Z,21.05
2023-09-08T19:01:07.020Z,22.33
2023-09-08T19:03:52.325Z,19.45
2023-09-08T19:06:37.471Z,20.25
2023-09-08T19:09:23.290Z,19.20
2023-09-08T19:12:09.365Z,20.02
2023-09-08T19:14:56.085Z,26.40
2023-09-08T19:17:41.441Z,19.45
2023-09-08T19:20:26.862Z,24.13
2023-09-08T19:23:12.206Z,22.15
2023-09-08T19:25:57.448Z,21.45
2023-09-08T19:28:42.631Z,20.65
2023-09-08T19:31:28.332Z,20.38
2023-09-08T19:34:15.864Z,19.08
2023-09-08T19:37:00.956Z,25.42
2023-09-08T19:39:46.568Z,19.40
2023-09-08T19:42:32.479Z,19.02
2023-09-08T19:45:18.001Z,21.58
2023-09-08T19:48:03.581Z,19.15
2023-09-08T19:50:48.624Z,20.60
2023-09-08T19:53:34.883Z,17.33
2023-09-08T19:56:20.462Z,19.48
2023-09-08T19:59:06.089Z,15.77
2023-09-08T20:01:51.728Z,17.45
2023-09-08T20:04:37.340Z,15.63
2023-09-08T20:07:22.429Z,18.45
2023-09-08T20:10:10.247Z,19.00
2023-09-08T20:12:55.642Z,16.40
2023-09-08T20:15:41.148Z,15.18
2023-09-08T20:18:26.878Z,21.73
2023-09-08T20:21:12.370Z,13.85
2023-09-08T20:23:58.012Z,22.63
2023-09-08T20:26:43.582Z,14.80
2023-09-08T20:29:29.572Z,15.43
2023-09-08T20:32:15.438Z,14.93
2023-09-08T20:35:00.853Z,17.88
2023-09-08T20:37:46.551Z,12.93
2023-09-08T20:40:32.154Z,15.38
2023-09-08T20:43:21.158Z,16.45
2023-09-08T20:46:07.296Z,16.80
2023-09-08T20:48:52.656Z,15.77
2023-09-08T20:51:37.994Z,13.93
2023-09-08T20:54:23.249Z,15.98
2023-09-08T20:57:08.604Z,18.60
2023-09-08T20:59:53.728Z,13.82
2023-09-08T21:02:39.167Z,13.45
2023-09-08T21:05:24.975Z,16.92
2023-09-08T21:08:10.253Z,17.10
2023-09-08T21:10:57.739Z,19.25
2023-09-08T21:13:43.055Z,16.02
2023-09-08T21:16:28.684Z,20.17
2023-09-08T21:19:15.092Z,20.45
2023-09-08T21:22:00.546Z,17.42
2023-09-08T21:24:45.758Z,18.02
2023-09-08T21:27:31.310Z,17.17
2023-09-08T21:30:16.934Z,15.98
2023-09-08T21:33:02.211Z,19.13
2023-09-08T21:35:47.518Z,17.33
2023-09-08T21:38:33.224Z,14.88
2023-09-08T21:41:18.493Z,13.75
2023-09-08T21:44:03.723Z,17.48
2023-09-08T21:46:48.991Z,15.77
2023-09-08T21:49:34.668Z,13.77
2023-09-08T21:52:35.427Z,16.35
2023-09-08T21:55:22.738Z,21.80
2023-09-08T21:58:08.185Z,20.45
2023-09-08T22:00:53.851Z,19.20
2023-09-08T22:03:39.509Z,17.60
2023-09-08T22:06:24.989Z,14.57
2023-09-08T22:09:10.549Z,17.30
2023-09-08T22:11:56.053Z,21.27
2023-09-08T22:14:41.458Z,19.25
2023-09-08T22:17:26.878Z,15.00
2023-09-08T22:20:16.935Z,22.00
2023-09-08T22:23:02.559Z,18.75
2023-09-08T22:25:47.799Z,19.13
2023-09-08T22:28:33.421Z,19.25
2023-09-08T22:31:19.012Z,18.00
2023-09-08T22:34:04.305Z,18.35
2023-09-08T22:36:52.814Z,19.13
2023-09-08T22:39:38.493Z,20.03
2023-09-08T22:42:24.342Z,21.02
2023-09-08T22:45:11.069Z,20.58
2023-09-08T22:47:56.711Z,18.92
2023-09-08T22:50:42.004Z,21.48
2023-09-08T22:53:28.098Z,18.90
2023-09-08T22:56:14.140Z,25.08
2023-09-08T22:58:59.307Z,22.45
2023-09-08T23:01:44.958Z,20.27
2023-09-08T23:04:30.659Z,23.70
2023-09-08T23:07:15.944Z,17.30
2023-09-08T23:10:01.500Z,18.60
2023-09-08T23:12:47.240Z,20.45
2023-09-08T23:15:34.178Z,20.23
2023-09-08T23:18:19.455Z,22.75
2023-09-08T23:21:05.002Z,18.45
2023-09-08T23:23:50.184Z,25.48
2023-09-08T23:26:35.837Z,24.00
2023-09-08T23:29:21.004Z,18.67
2023-09-08T23:32:06.533Z,18.90
2023-09-08T23:34:51.776Z,20.95
2023-09-08T23:37:36.911Z,17.08
2023-09-08T23:40:22.375Z,19.92
2023-09-08T23:43:07.661Z,18.92
2023-09-08T23:45:53.038Z,17.98
2023-09-08T23:48:38.351Z,17.30
2023-09-08T23:51:23.801Z,16.65
2023-09-08T23:54:09.544Z,17.35
2023-09-08T23:56:59.146Z,19.50
2023-09-08T23:59:45.341Z,20.77
